createdAt,value
2019-06-01T00:01:53.311Z,12.85
2019-06-01T00:04:27.854Z,13.03
2019-06-01T00:07:02.199Z,13.68
2019-06-01T00:09:43.168Z,12.90
2019-06-01T00:12:17.481Z,13.15
2019-06-01T00:14:53.279Z,13.48
2019-06-01T00:17:27.481Z,13.58
2019-06-01T00:20:01.152Z,14.05
2019-06-01T00:22:35.139Z,13.78
2019-06-01T00:25:09.212Z,14.63
2019-06-01T00:27:43.001Z,14.78
2019-06-01T00:30:26.708Z,15.00
2019-06-01T00:32:53.145Z,15.13
2019-06-01T00:35:27.293Z,14.78
2019-06-01T00:38:01.219Z,14.47
2019-06-01T00:40:35.017Z,14.47
2019-06-01T00:43:08.959Z,15.05
2019-06-01T00:45:44.469Z,15.00
2019-06-01T00:48:18.330Z,15.18
2019-06-01T00:50:53.192Z,14.68
2019-06-01T00:53:27.099Z,14.80
2019-06-01T00:56:00.922Z,15.70
2019-06-01T00:58:34.909Z,15.20
2019-06-01T01:01:08.639Z,15.43
2019-06-01T01:03:42.378Z,15.38
2019-06-01T01:06:16.441Z,15.65
2019-06-01T01:08:50.994Z,14.60
2019-06-01T01:11:24.920Z,14.78
2019-06-01T01:13:58.727Z,15.20
2019-06-01T01:16:32.591Z,15.65
2019-06-01T01:19:07.430Z,14.83
2019-06-01T01:21:56.352Z,14.85
2019-06-01T01:24:30.531Z,13.53
2019-06-01T01:27:04.921Z,14.47
2019-06-01T01:29:38.632Z,14.35
2019-06-01T01:32:12.501Z,13.95
2019-06-01T01:34:47.388Z,14.80
2019-06-01T01:37:21.400Z,14.38
2019-06-01T01:39:56.300Z,14.85
2019-06-01T01:42:30.009Z,13.55
2019-06-01T01:45:04.783Z,13.85
2019-06-01T01:47:38.482Z,14.05
2019-06-01T01:50:12.742Z,14.35
2019-06-01T01:52:46.488Z,14.28
2019-06-01T01:55:20.260Z,14.15
2019-06-01T01:57:55.221Z,14.53
2019-06-01T02:00:45.609Z,13.55
2019-06-01T02:03:20.513Z,14.28
2019-06-01T02:05:54.971Z,14.05
2019-06-01T02:08:28.728Z,14.20
2019-06-01T02:11:02.453Z,12.58
2019-06-01T02:13:37.038Z,14.95
2019-06-01T02:16:10.757Z,14.68
2019-06-01T02:18:44.709Z,14.53
2019-06-01T02:21:18.468Z,14.98
2019-06-01T02:23:52.942Z,15.70
2019-06-01T02:26:26.628Z,14.90
2019-06-01T02:29:02.214Z,15.55
2019-06-01T02:31:41.802Z,15.53
2019-06-01T02:34:11.271Z,15.28
2019-06-01T02:36:45.251Z,14.90
2019-06-01T02:39:19.363Z,14.20
2019-06-01T02:41:54.804Z,14.35
2019-06-01T02:44:28.768Z,14.65
2019-06-01T02:47:04.020Z,13.72
2019-06-01T02:49:38.161Z,13.25
2019-06-01T02:52:11.961Z,14.13
2019-06-01T02:54:45.762Z,13.65
2019-06-01T02:57:20.205Z,14.73
2019-06-01T02:59:54.838Z,13.85
2019-06-01T03:02:28.519Z,13.35
2019-06-01T03:05:03.291Z,15.25
2019-06-01T03:07:41.224Z,13.40
2019-06-01T03:10:15.721Z,14.50
2019-06-01T03:12:54.966Z,13.65
2019-06-01T03:15:32.942Z,14.90
2019-06-01T03:18:08.248Z,13.88
2019-06-01T03:20:45.651Z,14.93
2019-06-01T03:23:22.408Z,13.62
2019-06-01T03:25:57.212Z,13.95
2019-06-01T03:28:34.627Z,14.58
2019-06-01T03:31:13.342Z,13.98
2019-06-01T03:33:47.720Z,13.55
2019-06-01T03:36:22.031Z,13.13
2019-06-01T03:38:57.478Z,14.55
2019-06-01T03:41:32.704Z,15.03
2019-06-01T03:44:06.869Z,15.95
2019-06-01T03:46:41.450Z,13.68
2019-06-01T03:49:15.097Z,14.53
2019-06-01T03:51:48.808Z,14.00
2019-06-01T03:54:22.572Z,12.28
2019-06-01T03:56:56.872Z,13.15
2019-06-01T03:59:30.638Z,15.50
2019-06-01T04:02:05.105Z,13.18
2019-06-01T04:04:39.341Z,14.07
2019-06-01T04:07:13.138Z,13.50
2019-06-01T04:09:46.920Z,14.47
2019-06-01T04:12:20.748Z,14.03
2019-06-01T04:14:54.519Z,17.40
2019-06-01T04:17:28.831Z,18.57
2019-06-01T04:20:03.859Z,19.17
2019-06-01T04:22:37.789Z,18.32
2019-06-01T04:25:12.330Z,16.87
2019-06-01T04:27:46.782Z,13.70
2019-06-01T04:30:25.175Z,13.93
2019-06-01T04:32:58.986Z,13.10
2019-06-01T04:35:32.689Z,14.38
2019-06-01T04:38:07.178Z,13.38
2019-06-01T04:40:41.790Z,14.78
2019-06-01T04:43:15.590Z,17.42
2019-06-01T04:45:50.796Z,20.88
2019-06-01T04:48:25.007Z,23.05
2019-06-01T04:50:58.902Z,24.92
2019-06-01T04:53:32.777Z,24.07
2019-06-01T04:56:07.014Z,23.42
2019-06-01T04:58:41.412Z,22.98
2019-06-01T05:01:15.634Z,21.60
2019-06-01T05:03:49.906Z,22.52
2019-06-01T05:06:25.483Z,21.60
2019-06-01T05:08:59.169Z,22.22
2019-06-01T05:11:32.890Z,21.82
2019-06-01T05:14:07.549Z,22.20
2019-06-01T05:16:41.981Z,22.13
2019-06-01T05:19:16.606Z,22.05
2019-06-01T05:21:51.078Z,21.55
2019-06-01T05:24:25.382Z,19.87
2019-06-01T05:27:00.579Z,20.95
2019-06-01T05:29:36.077Z,20.48
2019-06-01T05:32:10.483Z,18.90
2019-06-01T05:34:44.646Z,19.80
2019-06-01T05:37:18.871Z,21.12
2019-06-01T05:39:53.843Z,19.90
2019-06-01T05:42:27.627Z,19.02
2019-06-01T05:45:01.412Z,18.70
2019-06-01T05:47:35.232Z,19.50
2019-06-01T05:50:10.625Z,19.27
2019-06-01T05:52:45.262Z,19.35
2019-06-01T05:55:19.327Z,18.37
2019-06-01T05:57:54.448Z,18.60
2019-06-01T06:00:45.724Z,18.87
2019-06-01T06:03:23.484Z,18.85
2019-06-01T06:05:55.266Z,18.75
2019-06-01T06:08:29.016Z,19.00
2019-06-01T06:11:03.456Z,17.32
2019-06-01T06:16:30.082Z,17.62
2019-06-01T06:19:04.262Z,17.45
2019-06-01T06:21:38.364Z,17.37
2019-06-01T06:24:12.225Z,16.57
2019-06-01T06:26:46.129Z,16.85
2019-06-01T06:29:20.967Z,16.10
2019-06-01T06:31:55.280Z,16.32
2019-06-01T06:34:29.537Z,17.57
2019-06-01T06:37:03.788Z,15.63
2019-06-01T06:39:37.676Z,15.03
2019-06-01T06:42:11.478Z,14.33
2019-06-01T06:44:45.657Z,15.40
2019-06-01T06:47:27.517Z,11.68
2019-06-01T06:50:01.690Z,11.50
2019-06-01T06:52:36.028Z,13.00
2019-06-01T06:55:10.318Z,14.23
2019-06-01T06:57:45.659Z,12.63
2019-06-01T07:00:20.636Z,13.78
2019-06-01T07:02:55.243Z,12.80
2019-06-01T07:05:31.399Z,11.60
2019-06-01T07:08:04.389Z,13.50
2019-06-01T07:10:38.148Z,12.30
2019-06-01T07:13:12.003Z,11.75
2019-06-01T07:15:57.523Z,12.15
2019-06-01T07:18:36.199Z,12.23
2019-06-01T07:21:34.140Z,10.70
2019-06-01T07:23:55.535Z,9.40
2019-06-01T07:26:29.271Z,8.30
2019-06-01T07:29:04.185Z,9.78
2019-06-01T07:31:41.461Z,9.38
2019-06-01T07:34:32.158Z,7.58
2019-06-01T07:36:52.754Z,6.65
2019-06-01T07:39:26.808Z,7.00
2019-06-01T07:42:00.707Z,9.05
2019-06-01T07:44:34.474Z,7.05
2019-06-01T07:47:08.128Z,9.55
2019-06-01T07:49:44.598Z,8.33
2019-06-01T07:52:20.244Z,10.38
2019-06-01T07:54:55.329Z,9.93
2019-06-01T07:57:29.800Z,8.00
2019-06-01T08:00:11.451Z,8.43
2019-06-01T08:02:45.500Z,8.38
2019-06-01T08:05:19.838Z,7.22
2019-06-01T08:07:55.642Z,7.97
2019-06-01T08:10:29.772Z,8.93
2019-06-01T08:13:03.429Z,8.45
2019-06-01T08:15:38.025Z,8.60
2019-06-01T08:18:12.075Z,8.55
2019-06-01T08:20:46.024Z,8.10
2019-06-01T08:23:20.359Z,9.40
2019-06-01T08:25:54.851Z,9.38
2019-06-01T08:28:29.139Z,8.25
2019-06-01T08:31:02.978Z,8.50
2019-06-01T08:33:36.802Z,7.65
2019-06-01T08:36:10.760Z,8.65
2019-06-01T08:38:44.938Z,8.60
2019-06-01T08:41:23.244Z,7.62
2019-06-01T08:43:57.580Z,6.17
2019-06-01T08:46:31.899Z,7.28
2019-06-01T08:49:06.248Z,6.65
2019-06-01T08:51:40.459Z,6.10
2019-06-01T08:54:14.661Z,5.70
2019-06-01T08:56:49.260Z,6.30
2019-06-01T08:59:24.230Z,6.00
2019-06-01T09:01:58.555Z,4.67
2019-06-01T09:04:32.795Z,5.40
2019-06-01T09:07:08.715Z,5.92
2019-06-01T09:09:43.094Z,5.60
2019-06-01T09:12:17.120Z,5.70
2019-06-01T12:00:18.951Z,5.95
2019-06-01T12:02:53.219Z,6.20
2019-06-01T12:05:27.505Z,4.95
2019-06-01T12:08:02.670Z,5.20
2019-06-01T12:10:36.892Z,5.33
2019-06-01T12:13:10.669Z,5.67
2019-06-01T12:15:44.567Z,5.83
2019-06-01T12:18:18.334Z,5.05
2019-06-01T12:20:53.645Z,5.60
2019-06-01T12:23:27.275Z,5.87
2019-06-01T12:26:01.166Z,5.90
2019-06-01T12:28:35.259Z,5.97
2019-06-01T12:31:09.281Z,5.78
2019-06-01T12:33:44.184Z,5.75
2019-06-01T12:36:19.273Z,5.85
2019-06-01T12:38:53.490Z,5.95
2019-06-01T12:41:27.203Z,5.85
2019-06-01T12:44:13.442Z,6.15
2019-06-01T12:46:47.270Z,6.15
2019-06-01T12:49:20.989Z,5.60
2019-06-01T12:51:55.168Z,6.37
2019-06-01T12:54:28.967Z,5.95
2019-06-01T12:57:02.746Z,6.60
2019-06-01T12:59:36.442Z,6.72
2019-06-01T13:02:10.240Z,6.42
2019-06-01T13:04:44.931Z,7.10
2019-06-01T13:07:18.648Z,6.78
2019-06-01T13:09:53.571Z,6.50
2019-06-01T13:18:57.515Z,6.80
2019-06-01T13:21:31.851Z,6.42
2019-06-01T13:24:06.088Z,6.00
2019-06-01T13:26:41.742Z,5.50
2019-06-01T13:29:15.599Z,6.33
2019-06-01T13:31:50.527Z,6.33
2019-06-01T13:44:23.511Z,5.45
2019-06-01T13:46:57.336Z,5.60
2019-06-01T13:49:32.162Z,6.33
2019-06-01T13:52:05.971Z,6.00
2019-06-01T13:54:41.991Z,6.78
2019-06-01T13:57:18.153Z,7.45
2019-06-01T13:59:52.969Z,7.72
2019-06-01T14:02:26.851Z,7.15
2019-06-01T14:05:00.632Z,6.55
2019-06-01T14:07:34.421Z,8.80
2019-06-01T14:10:09.299Z,7.55
2019-06-01T14:12:43.411Z,6.00
2019-06-01T14:15:18.030Z,6.03
2019-06-01T14:17:52.309Z,6.00
2019-06-01T14:20:27.676Z,7.05
2019-06-01T14:23:01.477Z,6.90
2019-06-01T14:25:35.235Z,7.15
2019-06-01T14:28:09.069Z,7.72
2019-06-01T14:30:43.630Z,7.92
2019-06-01T14:33:17.333Z,7.97
2019-06-01T14:35:52.752Z,7.03
2019-06-01T14:38:27.638Z,7.00
2019-06-01T14:41:01.351Z,6.95
2019-06-01T14:43:40.242Z,6.80
2019-06-01T14:46:13.898Z,6.80
2019-06-01T14:48:47.649Z,6.30
2019-06-01T14:51:21.355Z,6.65
2019-06-01T14:53:55.788Z,6.40
2019-06-01T14:56:29.718Z,5.80
2019-06-01T14:59:03.452Z,4.97
2019-06-01T15:01:37.291Z,6.03
2019-06-01T15:04:12.031Z,5.35
2019-06-01T15:06:46.337Z,4.90
2019-06-01T15:09:20.272Z,4.55
2019-06-01T15:11:54.501Z,5.40
2019-06-01T15:14:28.189Z,6.10
2019-06-01T15:17:02.373Z,5.50
2019-06-01T15:19:36.254Z,5.05
2019-06-01T15:22:10.054Z,4.90
2019-06-01T15:24:44.010Z,5.65
2019-06-01T15:27:35.862Z,6.05
2019-06-01T15:30:13.392Z,6.65
2019-06-01T15:32:47.323Z,9.10
2019-06-01T15:35:21.085Z,6.22
2019-06-01T15:37:59.827Z,6.45
2019-06-01T15:40:33.391Z,6.30
2019-06-01T15:43:07.496Z,5.50
2019-06-01T15:45:41.410Z,5.33
2019-06-01T15:48:15.289Z,10.45
2019-06-01T15:50:49.063Z,8.60
2019-06-01T15:53:22.881Z,6.67
2019-06-01T15:55:56.790Z,6.42
2019-06-01T15:58:30.902Z,5.37
2019-06-01T16:01:05.104Z,6.10
2019-06-01T16:03:38.904Z,6.37
2019-06-01T16:06:13.712Z,5.17
2019-06-01T16:08:47.601Z,5.75
2019-06-01T16:11:21.284Z,5.58
2019-06-01T16:13:57.802Z,5.22
2019-06-01T16:16:31.954Z,5.37
2019-06-01T16:19:07.903Z,6.30
2019-06-01T16:21:41.231Z,5.62
2019-06-01T16:24:14.937Z,5.22
2019-06-01T16:26:48.592Z,5.10
2019-06-01T16:29:22.882Z,6.72
2019-06-01T16:31:56.732Z,5.87
2019-06-01T16:34:30.543Z,9.65
2019-06-01T16:37:05.319Z,12.23
2019-06-01T16:39:39.142Z,7.25
2019-06-01T16:42:13.521Z,7.25
2019-06-01T16:44:47.402Z,6.47
2019-06-01T16:47:21.099Z,7.90
2019-06-01T16:49:55.780Z,10.23
2019-06-01T16:52:30.164Z,6.65
2019-06-01T16:55:04.998Z,8.63
2019-06-01T16:57:39.803Z,7.05
2019-06-01T17:00:18.238Z,7.47
2019-06-01T17:02:51.919Z,6.92
2019-06-01T17:05:25.617Z,8.30
2019-06-01T17:08:00.691Z,9.30
2019-06-01T17:14:12.982Z,6.60
2019-06-01T17:16:47.170Z,7.12
2019-06-01T17:19:20.991Z,6.72
2019-06-01T17:21:55.162Z,8.13
2019-06-01T17:24:29.229Z,9.48
2019-06-01T17:27:03.968Z,11.45
2019-06-01T17:29:38.037Z,16.93
2019-06-01T17:39:14.309Z,11.80
2019-06-01T17:41:48.037Z,11.33
2019-06-01T17:44:21.800Z,11.88
2019-06-01T17:46:55.634Z,10.65
2019-06-01T17:49:31.625Z,10.63
2019-06-01T17:52:05.971Z,10.75
2019-06-01T17:54:39.749Z,15.45
2019-06-01T17:57:22.460Z,13.78
2019-06-01T17:59:57.958Z,12.78
2019-06-01T18:02:31.841Z,11.90
2019-06-01T18:05:08.311Z,10.78
2019-06-01T18:07:42.007Z,11.75
2019-06-01T18:10:16.873Z,19.42
2019-06-01T18:15:45.478Z,10.45
2019-06-01T18:18:19.763Z,12.73
2019-06-01T18:20:53.807Z,10.28
2019-06-01T18:23:27.597Z,11.90
2019-06-01T18:26:02.536Z,13.18
2019-06-01T18:28:36.519Z,11.75
2019-06-01T18:31:10.735Z,12.07
2019-06-01T18:33:44.834Z,13.58
2019-06-01T18:36:18.746Z,11.33
2019-06-01T18:38:53.387Z,11.10
2019-06-01T18:41:27.066Z,10.48
2019-06-01T18:44:00.863Z,11.55
2019-06-01T18:46:34.889Z,12.33
2019-06-01T18:49:09.880Z,15.93
2019-06-01T18:51:50.716Z,15.58
2019-06-01T18:54:24.452Z,15.43
2019-06-01T18:57:12.330Z,12.93
2019-06-01T18:59:41.371Z,15.03
2019-06-01T19:02:15.057Z,12.78
2019-06-01T19:04:48.861Z,13.05
2019-06-01T19:07:25.657Z,13.35
2019-06-01T19:09:59.550Z,12.00
2019-06-01T19:12:33.367Z,12.30
2019-06-01T19:15:13.858Z,14.75
2019-06-01T19:17:49.455Z,17.48
2019-06-01T19:20:23.242Z,20.52
2019-06-01T19:22:57.156Z,12.30
2019-06-01T19:25:31.068Z,12.28
2019-06-01T19:28:04.802Z,12.75
2019-06-01T19:30:44.229Z,23.02
2019-06-01T19:33:19.512Z,75.65
2019-06-01T19:35:54.500Z,43.68
2019-06-01T19:38:31.523Z,55.80
2019-06-01T19:41:07.413Z,48.20
2019-06-01T19:43:42.999Z,38.60
2019-06-01T19:46:17.948Z,32.73
2019-06-01T19:48:51.956Z,39.23
2019-06-01T19:51:25.809Z,26.52
2019-06-01T19:54:00.173Z,12.70
2019-06-01T19:56:34.175Z,23.05
2019-06-01T19:59:11.796Z,27.62
2019-06-01T20:01:45.723Z,26.33
2019-06-01T20:04:19.650Z,25.43
2019-06-01T20:06:53.441Z,16.35
2019-06-01T20:09:27.271Z,13.08
2019-06-01T20:12:11.347Z,11.53
2019-06-01T20:14:40.270Z,11.57
2019-06-01T20:17:14.020Z,11.97
2019-06-01T20:19:47.786Z,13.98
2019-06-01T20:22:22.104Z,13.95
2019-06-01T20:24:55.900Z,20.02
2019-06-01T20:27:30.121Z,16.87
2019-06-01T20:30:11.705Z,16.00
2019-06-01T20:32:46.107Z,16.15
2019-06-01T20:35:22.163Z,16.52
2019-06-01T20:37:56.227Z,19.42
2019-06-01T20:40:30.071Z,16.67
2019-06-01T20:43:04.061Z,17.67
2019-06-01T20:45:38.138Z,16.77
2019-06-01T20:48:13.385Z,17.05
2019-06-01T20:50:47.902Z,20.72
2019-06-01T20:53:23.246Z,21.65
2019-06-01T20:55:57.111Z,24.40
2019-06-01T20:58:30.870Z,22.35
2019-06-01T21:01:06.741Z,29.65
2019-06-01T21:03:40.406Z,24.45
2019-06-01T21:06:14.206Z,22.20
2019-06-01T21:08:47.902Z,20.40
2019-06-01T21:11:22.480Z,20.88
2019-06-01T21:13:56.199Z,21.90
2019-06-01T21:16:30.016Z,20.55
2019-06-01T21:19:03.720Z,17.90
2019-06-01T21:21:37.529Z,19.92
2019-06-01T21:24:11.172Z,23.50
2019-06-01T21:26:45.626Z,25.10
2019-06-01T21:29:19.422Z,22.37
2019-06-01T21:31:53.254Z,24.10
2019-06-01T21:34:27.041Z,21.00
2019-06-01T21:37:00.863Z,21.12
2019-06-01T21:39:35.358Z,19.48
2019-06-01T21:42:09.046Z,22.55
2019-06-01T21:44:42.810Z,22.05
2019-06-01T21:47:17.590Z,26.93
2019-06-01T21:49:52.223Z,19.62
2019-06-01T21:52:26.428Z,20.75
2019-06-01T21:55:01.874Z,18.48
2019-06-01T21:57:35.698Z,18.62
2019-06-01T22:00:18.570Z,19.07
2019-06-01T22:02:54.862Z,18.98
2019-06-01T22:05:29.270Z,20.10
2019-06-01T22:08:03.952Z,19.45
2019-06-01T22:10:37.673Z,20.27
2019-06-01T22:13:18.809Z,20.50
2019-06-01T22:15:46.962Z,20.57
2019-06-01T22:18:21.603Z,20.57
2019-06-01T22:20:55.468Z,20.75
2019-06-01T22:23:29.260Z,21.20
2019-06-01T22:26:04.220Z,22.22
2019-06-01T22:28:38.351Z,21.33
2019-06-01T22:31:12.085Z,19.85
2019-06-01T22:33:46.884Z,19.55
2019-06-01T22:36:20.563Z,19.20
2019-06-01T22:38:55.012Z,18.30
2019-06-01T22:41:29.242Z,19.02
2019-06-01T22:44:03.114Z,18.30
2019-06-01T22:46:37.400Z,18.07
2019-06-01T22:49:11.874Z,17.95
2019-06-01T22:51:45.669Z,16.65
2019-06-01T22:54:20.954Z,18.48
2019-06-01T22:56:54.882Z,17.60
2019-06-01T22:59:28.765Z,16.77
2019-06-01T23:02:02.532Z,17.75
2019-06-01T23:04:36.362Z,17.80
2019-06-01T23:07:12.096Z,16.07
2019-06-01T23:09:47.692Z,16.30
2019-06-01T23:12:21.429Z,15.65
2019-06-01T23:14:56.032Z,16.15
2019-06-01T23:17:29.962Z,15.80
2019-06-01T23:20:05.491Z,14.73
2019-06-01T23:22:39.201Z,16.10
2019-06-01T23:25:12.909Z,15.13
2019-06-01T23:27:47.478Z,14.80
2019-06-01T23:30:22.010Z,15.40
2019-06-01T23:32:55.705Z,15.25
2019-06-01T23:35:30.589Z,15.43
2019-06-01T23:38:04.460Z,16.93
2019-06-01T23:40:38.280Z,16.07
2019-06-01T23:43:12.050Z,15.93
2019-06-01T23:45:45.871Z,16.17
2019-06-01T23:48:42.889Z,15.55
2019-06-01T23:51:17.218Z,16.75
2019-06-01T23:53:52.508Z,16.17
2019-06-01T23:56:26.269Z,16.42
2019-06-01T23:59:03.858Z,16.12
